createdAt,value
2019-05-30T00:01:40.265Z,11.85
2019-05-30T00:04:07.967Z,11.82
2019-05-30T00:06:35.236Z,11.77
2019-05-30T00:09:04.640Z,11.85
2019-05-30T00:11:31.847Z,11.88
2019-05-30T00:14:00.663Z,11.84
2019-05-30T00:16:27.919Z,11.79
2019-05-30T00:18:55.103Z,11.78
2019-05-30T00:21:22.287Z,11.78
2019-05-30T00:23:49.521Z,11.79
2019-05-30T00:26:17.401Z,11.87
2019-05-30T00:28:44.947Z,11.87
2019-05-30T00:31:12.428Z,11.79
2019-05-30T00:33:39.615Z,11.69
2019-05-30T00:36:06.781Z,11.56
2019-05-30T00:38:33.976Z,11.44
2019-05-30T00:41:02.099Z,11.35
2019-05-30T00:43:29.380Z,11.33
2019-05-30T00:45:56.467Z,11.37
2019-05-30T00:48:24.037Z,11.38
2019-05-30T00:50:51.133Z,11.39
2019-05-30T00:53:18.443Z,11.34
2019-05-30T00:55:45.679Z,11.28
2019-05-30T00:58:12.827Z,11.20
2019-05-30T01:00:43.855Z,11.14
2019-05-30T01:03:09.399Z,11.11
2019-05-30T01:05:36.511Z,11.16
2019-05-30T01:08:03.667Z,11.26
2019-05-30T01:10:30.879Z,11.36
2019-05-30T01:12:59.755Z,11.39
2019-05-30T01:15:27.278Z,11.34
2019-05-30T01:17:54.369Z,11.31
2019-05-30T01:20:21.519Z,11.40
2019-05-30T01:22:48.666Z,11.49
2019-05-30T01:25:16.086Z,11.50
2019-05-30T01:27:43.156Z,11.44
2019-05-30T01:30:10.926Z,11.46
2019-05-30T01:32:38.399Z,11.53
2019-05-30T01:35:06.174Z,11.61
2019-05-30T01:37:33.309Z,11.77
2019-05-30T01:40:01.799Z,11.85
2019-05-30T01:42:29.093Z,11.86
2019-05-30T01:44:57.959Z,11.82
2019-05-30T01:47:25.231Z,11.80
2019-05-30T01:49:52.415Z,11.74
2019-05-30T01:52:19.851Z,11.72
2019-05-30T01:54:47.497Z,11.66
2019-05-30T01:57:14.664Z,11.65
2019-05-30T01:59:41.974Z,11.66
2019-05-30T02:02:09.656Z,11.64
2019-05-30T02:04:37.146Z,11.57
2019-05-30T02:07:05.167Z,11.61
2019-05-30T02:09:32.424Z,11.58
2019-05-30T02:11:59.589Z,11.47
2019-05-30T02:14:26.670Z,11.59
2019-05-30T02:16:53.989Z,11.72
2019-05-30T02:19:21.153Z,11.67
2019-05-30T02:21:48.387Z,11.48
2019-05-30T02:24:15.939Z,11.47
2019-05-30T02:26:43.170Z,11.36
2019-05-30T02:29:10.497Z,11.30
2019-05-30T02:31:39.732Z,11.35
2019-05-30T02:34:07.628Z,11.36
2019-05-30T02:36:36.009Z,11.45
2019-05-30T02:39:07.221Z,11.45
2019-05-30T02:41:34.311Z,11.46
2019-05-30T02:44:02.908Z,11.48
2019-05-30T02:46:30.250Z,11.48
2019-05-30T02:48:59.571Z,11.52
2019-05-30T02:51:26.424Z,11.40
2019-05-30T02:53:53.666Z,11.34
2019-05-30T02:56:20.722Z,11.24
2019-05-30T02:58:47.884Z,11.10
2019-05-30T03:01:15.025Z,11.06
2019-05-30T03:03:42.451Z,10.98
2019-05-30T03:06:13.105Z,10.83
2019-05-30T03:08:38.730Z,10.70
2019-05-30T03:11:07.920Z,10.58
2019-05-30T03:13:35.019Z,10.48
2019-05-30T03:16:04.427Z,10.45
2019-05-30T03:18:31.376Z,10.45
2019-05-30T03:20:58.435Z,10.42
2019-05-30T03:23:26.373Z,10.51
2019-05-30T03:25:53.651Z,10.50
2019-05-30T03:28:20.927Z,10.53
2019-05-30T03:30:48.383Z,10.48
2019-05-30T03:33:36.178Z,10.44
2019-05-30T03:35:44.991Z,10.42
2019-05-30T03:38:13.507Z,10.45
2019-05-30T03:40:41.452Z,10.61
2019-05-30T03:43:09.325Z,10.70
2019-05-30T03:45:39.528Z,10.79
2019-05-30T03:48:12.247Z,10.83
2019-05-30T03:50:43.269Z,10.86
2019-05-30T03:53:14.327Z,10.87
2019-05-30T03:55:46.219Z,10.95
2019-05-30T03:58:20.968Z,11.05
2019-05-30T04:00:53.964Z,11.15
2019-05-30T04:03:48.560Z,11.33
2019-05-30T04:06:25.014Z,11.47
2019-05-30T04:08:57.322Z,11.61
2019-05-30T04:11:33.075Z,11.78
2019-05-30T04:14:03.082Z,12.10
2019-05-30T04:16:33.235Z,12.43
2019-05-30T04:19:00.533Z,12.73
2019-05-30T04:21:27.726Z,12.95
2019-05-30T04:23:55.028Z,13.20
2019-05-30T04:26:22.228Z,13.47
2019-05-30T04:28:49.416Z,13.75
2019-05-30T04:31:17.674Z,15.03
2019-05-30T04:33:45.772Z,17.39
2019-05-30T04:36:14.404Z,19.30
2019-05-30T04:38:41.886Z,21.30
2019-05-30T04:41:09.080Z,22.58
2019-05-30T04:43:36.234Z,22.51
2019-05-30T04:46:03.414Z,23.12
2019-05-30T04:48:30.612Z,23.36
2019-05-30T04:50:57.678Z,24.38
2019-05-30T04:53:24.903Z,24.97
2019-05-30T04:55:52.294Z,25.11
2019-05-30T04:58:21.881Z,25.97
2019-05-30T05:00:48.577Z,26.61
2019-05-30T05:03:19.074Z,27.27
2019-05-30T05:05:44.793Z,28.16
2019-05-30T05:08:11.974Z,28.84
2019-05-30T05:10:39.488Z,29.08
2019-05-30T05:13:06.651Z,29.13
2019-05-30T05:15:33.825Z,29.83
2019-05-30T05:18:00.919Z,30.55
2019-05-30T05:20:28.201Z,31.51
2019-05-30T05:22:55.626Z,32.27
2019-05-30T05:25:23.604Z,33.24
2019-05-30T05:27:50.820Z,34.02
2019-05-30T05:30:20.138Z,34.82
2019-05-30T05:32:47.318Z,35.71
2019-05-30T05:35:14.825Z,36.56
2019-05-30T05:37:41.959Z,36.49
2019-05-30T05:40:09.647Z,36.75
2019-05-30T05:42:36.819Z,37.01
2019-05-30T05:45:04.908Z,37.34
2019-05-30T05:47:32.221Z,37.74
2019-05-30T05:49:59.420Z,37.89
2019-05-30T05:52:26.616Z,37.58
2019-05-30T05:54:53.823Z,37.73
2019-05-30T05:57:21.090Z,37.67
2019-05-30T05:59:48.299Z,38.13
2019-05-30T06:02:17.481Z,38.45
2019-05-30T06:04:56.639Z,39.42
2019-05-30T06:13:45.557Z,38.35
2019-05-30T06:16:12.785Z,37.99
2019-05-30T06:21:53.529Z,37.10
2019-05-30T06:24:21.475Z,37.99
2019-05-30T06:35:38.376Z,40.10
2019-05-30T06:38:05.557Z,41.00
2019-05-30T06:43:34.198Z,40.39
2019-05-30T06:46:13.544Z,39.48
2019-05-30T06:52:06.694Z,40.63
2019-05-30T06:54:33.882Z,41.12
2019-05-30T06:57:21.172Z,42.10
2019-05-30T06:59:48.389Z,42.86
2019-05-30T07:02:15.644Z,42.72
2019-05-30T07:04:51.418Z,43.20
2019-05-30T07:07:22.615Z,43.93
2019-05-30T07:10:08.101Z,44.22
2019-05-30T07:12:54.886Z,44.82
2019-05-30T07:15:23.096Z,44.82
2019-05-30T07:21:21.353Z,43.93
2019-05-30T07:23:48.557Z,42.25
2019-05-30T07:29:29.993Z,42.79
2019-05-30T07:31:57.230Z,44.72
2019-05-30T07:35:07.249Z,45.21
2019-05-30T07:37:54.107Z,45.87
2019-05-30T07:41:02.170Z,47.82
2019-05-30T07:46:42.710Z,45.33
2019-05-30T07:49:09.927Z,44.84
2019-05-30T07:51:37.151Z,45.29
2019-05-30T07:57:20.391Z,45.88
2019-05-30T07:59:47.572Z,46.89
2019-05-30T08:02:27.539Z,48.15
2019-05-30T08:04:54.719Z,48.34
2019-05-30T08:07:21.921Z,48.87
2019-05-30T08:12:30.095Z,48.59
2019-05-30T08:15:48.831Z,50.16
2019-05-30T08:18:48.134Z,49.24
2019-05-30T08:21:15.336Z,44.91
2019-05-30T08:23:42.548Z,44.68
2019-05-30T08:26:30.030Z,44.50
2019-05-30T08:44:15.221Z,43.18
2019-05-30T08:46:42.443Z,42.58
2019-05-30T08:49:09.639Z,41.19
2019-05-30T08:51:36.890Z,39.75
2019-05-30T08:54:04.109Z,37.88
2019-05-30T08:56:32.915Z,37.22
2019-05-30T08:59:06.626Z,36.63
2019-05-30T09:07:36.514Z,34.05
2019-05-30T09:13:23.976Z,33.92
2019-05-30T09:16:31.989Z,34.58
2019-05-30T09:18:59.215Z,35.38
2019-05-30T09:27:28.376Z,34.84
2019-05-30T09:30:07.807Z,35.55
2019-05-30T09:32:47.240Z,36.49
2019-05-30T09:41:17.191Z,34.48
2019-05-30T09:46:37.207Z,33.26
2019-05-30T09:49:24.224Z,32.57
2019-05-30T09:51:51.458Z,30.51
2019-05-30T10:03:11.749Z,29.78
2019-05-30T10:06:28.959Z,30.12
2019-05-30T10:11:56.865Z,30.63
2019-05-30T10:14:23.965Z,30.61
2019-05-30T10:16:54.975Z,30.81
2019-05-30T10:19:40.496Z,30.51
2019-05-30T10:22:20.034Z,30.05
2019-05-30T10:27:27.349Z,29.70
2019-05-30T10:30:06.624Z,30.14
2019-05-30T10:32:33.876Z,30.22
2019-05-30T10:35:01.085Z,30.15
2019-05-30T10:37:50.779Z,29.94
2019-05-30T10:41:05.922Z,29.71
2019-05-30T10:46:34.683Z,29.53
2019-05-30T10:49:01.898Z,30.65
2019-05-30T10:51:29.463Z,31.08
2019-05-30T10:54:37.678Z,31.19
2019-05-30T10:57:05.137Z,31.69
2019-05-30T11:00:13.252Z,32.19
2019-05-30T11:02:40.837Z,32.39
2019-05-30T11:05:48.892Z,32.40
2019-05-30T11:11:37.105Z,30.13
2019-05-30T11:14:04.638Z,29.59
2019-05-30T11:16:31.819Z,29.62
2019-05-30T11:18:59.035Z,29.92
2019-05-30T11:21:26.242Z,30.01
2019-05-30T11:23:54.398Z,29.73
2019-05-30T11:26:28.845Z,28.80
2019-05-30T11:28:56.779Z,27.90
2019-05-30T11:34:25.952Z,26.32
2019-05-30T11:39:46.065Z,26.33
2019-05-30T11:42:13.271Z,26.34
2019-05-30T11:44:40.429Z,26.33
2019-05-30T11:59:13.083Z,29.10
2019-05-30T12:02:00.505Z,29.71
2019-05-30T12:04:35.933Z,30.11
2019-05-30T12:07:03.174Z,30.55
2019-05-30T12:09:30.280Z,30.78
2019-05-30T12:11:57.541Z,30.99
2019-05-30T12:14:24.610Z,31.08
2019-05-30T12:16:53.103Z,31.06
2019-05-30T12:19:40.782Z,31.07
2019-05-30T12:22:19.839Z,30.93
2019-05-30T12:24:47.265Z,30.92
2019-05-30T12:27:56.048Z,30.79
2019-05-30T12:30:54.981Z,30.56
2019-05-30T12:36:54.841Z,29.37
2019-05-30T12:39:22.325Z,28.41
2019-05-30T12:41:49.978Z,28.16
2019-05-30T12:44:17.277Z,28.00
2019-05-30T12:46:44.455Z,27.84
2019-05-30T12:49:11.677Z,27.93
2019-05-30T12:51:38.913Z,27.69
2019-05-30T12:54:06.834Z,27.81
2019-05-30T12:57:04.481Z,27.94
2019-05-30T13:03:07.290Z,27.52
2019-05-30T13:05:41.864Z,27.10
2019-05-30T13:11:10.218Z,27.43
2019-05-30T13:14:18.228Z,27.62
2019-05-30T13:19:47.008Z,28.02
2019-05-30T13:22:14.452Z,28.19
2019-05-30T13:24:42.117Z,28.41
2019-05-30T13:27:09.281Z,28.71
2019-05-30T13:29:36.787Z,28.90
2019-05-30T13:35:45.946Z,29.18
2019-05-30T13:38:25.644Z,29.36
2019-05-30T13:44:44.828Z,29.04
2019-05-30T13:47:12.022Z,28.77
2019-05-30T13:49:39.213Z,28.60
2019-05-30T13:52:29.289Z,28.33
2019-05-30T13:54:56.454Z,27.91
2019-05-30T13:57:25.476Z,27.70
2019-05-30T13:59:53.105Z,27.76
2019-05-30T14:02:20.296Z,27.87
2019-05-30T14:04:47.467Z,28.13
2019-05-30T14:07:14.706Z,28.31
2019-05-30T14:10:02.404Z,28.42
2019-05-30T14:12:36.858Z,28.55
2019-05-30T14:21:39.263Z,28.37
2019-05-30T14:24:18.737Z,28.38
2019-05-30T14:27:05.515Z,28.30
2019-05-30T14:29:32.724Z,28.31
2019-05-30T14:32:00.325Z,28.69
2019-05-30T14:41:01.037Z,28.95
2019-05-30T14:43:28.542Z,28.53
2019-05-30T14:45:55.606Z,28.35
2019-05-30T14:48:22.831Z,27.92
2019-05-30T14:50:49.934Z,27.58
2019-05-30T14:53:17.194Z,27.57
2019-05-30T14:55:44.720Z,27.81
2019-05-30T14:58:13.221Z,27.84
2019-05-30T15:01:41.702Z,27.97
2019-05-30T15:04:09.192Z,28.15
2019-05-30T15:07:38.581Z,28.17
2019-05-30T15:13:26.068Z,27.55
2019-05-30T15:15:53.237Z,27.41
2019-05-30T15:18:32.123Z,26.93
2019-05-30T15:20:59.219Z,26.79
2019-05-30T15:24:07.698Z,26.83
2019-05-30T15:30:08.387Z,26.71
2019-05-30T15:32:35.562Z,26.50
2019-05-30T15:38:02.325Z,26.44
2019-05-30T15:40:31.286Z,26.17
2019-05-30T15:42:58.440Z,26.12
2019-05-30T15:46:07.761Z,26.01
2019-05-30T15:48:55.458Z,25.87
2019-05-30T15:51:22.690Z,25.77
2019-05-30T15:57:24.339Z,25.36
2019-05-30T16:03:04.633Z,25.10
2019-05-30T16:08:32.122Z,24.89
2019-05-30T16:10:59.223Z,24.99
2019-05-30T16:16:47.227Z,24.98
2019-05-30T16:19:20.177Z,24.89
2019-05-30T16:22:33.781Z,24.80
2019-05-30T16:28:34.484Z,24.62
2019-05-30T16:31:13.766Z,24.92
2019-05-30T16:33:41.140Z,25.07
2019-05-30T16:36:08.418Z,25.20
2019-05-30T16:38:35.558Z,25.19
2019-05-30T16:41:43.622Z,24.90
2019-05-30T16:44:10.821Z,24.46
2019-05-30T16:46:38.064Z,24.11
2019-05-30T16:49:05.314Z,23.91
2019-05-30T16:51:32.539Z,23.85
2019-05-30T16:54:11.999Z,23.79
2019-05-30T16:56:58.660Z,23.66
2019-05-30T16:59:26.896Z,23.55
2019-05-30T17:05:57.535Z,23.08
2019-05-30T17:08:37.365Z,22.93
2019-05-30T17:13:44.652Z,22.68
2019-05-30T17:16:31.359Z,22.63
2019-05-30T17:18:58.900Z,22.52
2019-05-30T17:21:26.777Z,22.49
2019-05-30T17:24:15.013Z,22.36
2019-05-30T17:26:42.239Z,22.26
2019-05-30T17:29:09.488Z,22.22
2019-05-30T17:32:10.432Z,22.22
2019-05-30T17:34:37.641Z,22.28
2019-05-30T17:37:04.815Z,22.31
2019-05-30T17:39:51.581Z,22.36
2019-05-30T17:42:59.588Z,22.37
2019-05-30T17:45:27.309Z,22.32
2019-05-30T17:48:56.595Z,22.26
2019-05-30T17:51:43.599Z,22.25
2019-05-30T17:57:38.726Z,22.12
2019-05-30T18:00:47.089Z,22.05
2019-05-30T18:03:34.237Z,22.19
2019-05-30T18:06:13.605Z,22.21
2019-05-30T18:11:34.727Z,22.20
2019-05-30T18:14:02.253Z,22.30
2019-05-30T18:19:10.807Z,22.15
2019-05-30T18:21:50.534Z,21.97
2019-05-30T18:24:18.172Z,21.83
2019-05-30T18:27:04.813Z,21.72
2019-05-30T18:29:32.315Z,21.70
2019-05-30T18:32:40.485Z,21.62
2019-05-30T18:35:48.470Z,21.50
2019-05-30T18:38:35.116Z,21.32
2019-05-30T18:44:17.493Z,20.99
2019-05-30T18:46:44.752Z,20.85
2019-05-30T18:49:11.964Z,20.78
2019-05-30T18:54:53.786Z,20.78
2019-05-30T18:57:40.465Z,20.70
2019-05-30T19:00:48.622Z,20.64
2019-05-30T19:03:16.061Z,20.59
2019-05-30T19:06:25.552Z,20.60
2019-05-30T19:09:13.083Z,20.49
2019-05-30T19:15:05.729Z,20.26
2019-05-30T19:17:52.407Z,20.16
2019-05-30T19:23:20.497Z,20.15
2019-05-30T19:25:48.139Z,20.23
2019-05-30T19:28:15.425Z,20.19
2019-05-30T19:30:42.683Z,20.20
2019-05-30T19:33:29.356Z,20.20
2019-05-30T19:35:56.640Z,20.24
2019-05-30T19:38:23.816Z,20.10
2019-05-30T19:41:46.002Z,20.00
2019-05-30T19:44:20.773Z,19.92
2019-05-30T19:47:30.237Z,19.79
2019-05-30T19:53:39.163Z,19.61
2019-05-30T19:56:13.216Z,19.58
2019-05-30T20:01:34.418Z,19.45
2019-05-30T20:04:01.873Z,19.41
2019-05-30T20:06:32.423Z,19.41
2019-05-30T20:09:07.452Z,19.35
2019-05-30T20:11:35.254Z,19.36
2019-05-30T20:14:35.120Z,19.30
2019-05-30T20:17:02.621Z,19.22
2019-05-30T20:19:29.718Z,19.15
2019-05-30T20:21:57.107Z,19.14
2019-05-30T20:24:24.346Z,19.20
2019-05-30T20:26:51.562Z,19.20
2019-05-30T20:29:19.016Z,19.21
2019-05-30T20:31:47.046Z,19.22
2019-05-30T20:34:14.284Z,19.26
2019-05-30T20:36:42.664Z,19.27
2019-05-30T20:39:09.973Z,19.37
2019-05-30T20:41:37.181Z,19.35
2019-05-30T20:44:04.541Z,19.58
2019-05-30T20:46:31.714Z,19.58
2019-05-30T20:48:58.914Z,19.43
2019-05-30T20:51:26.220Z,19.30
2019-05-30T20:53:54.907Z,19.11
2019-05-30T20:56:22.149Z,18.89
2019-05-30T20:58:49.401Z,18.79
2019-05-30T21:01:16.634Z,18.83
2019-05-30T21:03:43.971Z,18.84
2019-05-30T21:06:12.844Z,18.88
2019-05-30T21:08:41.283Z,18.88
2019-05-30T21:11:10.305Z,18.84
2019-05-30T21:13:40.237Z,18.87
2019-05-30T21:16:09.071Z,18.85
2019-05-30T21:18:36.264Z,18.83
2019-05-30T21:21:03.485Z,18.83
2019-05-30T21:23:30.722Z,18.84
2019-05-30T21:25:57.907Z,18.82
2019-05-30T21:28:25.248Z,18.88
2019-05-30T21:30:52.422Z,18.93
2019-05-30T21:33:20.196Z,18.97
2019-05-30T21:35:48.104Z,18.94
2019-05-30T21:38:15.560Z,18.94
2019-05-30T21:40:42.766Z,18.90
2019-05-30T21:43:09.883Z,18.90
2019-05-30T21:45:38.262Z,18.90
2019-05-30T21:48:05.949Z,18.88
2019-05-30T21:50:33.281Z,18.81
2019-05-30T21:53:00.455Z,18.78
2019-05-30T21:55:27.679Z,18.75
2019-05-30T21:57:54.913Z,18.70
2019-05-30T22:01:01.772Z,18.61
2019-05-30T22:03:29.209Z,18.58
2019-05-30T22:05:56.666Z,18.55
2019-05-30T22:08:23.836Z,18.62
2019-05-30T22:10:51.762Z,18.59
2019-05-30T22:13:19.537Z,18.49
2019-05-30T22:15:48.181Z,18.47
2019-05-30T22:18:15.602Z,18.42
2019-05-30T22:20:43.727Z,18.42
2019-05-30T22:23:11.222Z,18.46
2019-05-30T22:25:38.492Z,18.46
2019-05-30T22:28:05.974Z,18.43
2019-05-30T22:30:33.524Z,18.36
2019-05-30T22:33:00.746Z,18.25
2019-05-30T22:35:27.911Z,18.21
2019-05-30T22:37:55.079Z,18.18
2019-05-30T22:40:22.263Z,18.13
2019-05-30T22:42:50.175Z,18.10
2019-05-30T22:45:17.402Z,18.10
2019-05-30T22:47:44.523Z,18.06
2019-05-30T22:50:11.952Z,18.00
2019-05-30T22:52:40.151Z,17.93
2019-05-30T22:55:07.563Z,17.88
2019-05-30T22:57:34.698Z,17.84
2019-05-30T23:00:02.191Z,17.82
2019-05-30T23:02:29.835Z,17.77
2019-05-30T23:04:56.946Z,17.74
2019-05-30T23:07:24.502Z,17.72
2019-05-30T23:09:52.267Z,17.62
2019-05-30T23:12:19.834Z,17.48
2019-05-30T23:14:48.018Z,17.36
2019-05-30T23:17:15.520Z,17.24
2019-05-30T23:19:42.792Z,17.21
2019-05-30T23:22:10.173Z,17.10
2019-05-30T23:24:37.486Z,16.99
2019-05-30T23:27:08.155Z,16.84
2019-05-30T23:29:34.023Z,16.87
2019-05-30T23:32:01.484Z,16.85
2019-05-30T23:34:28.666Z,16.77
2019-05-30T23:36:56.697Z,16.70
2019-05-30T23:39:24.128Z,16.59
2019-05-30T23:41:51.320Z,16.48
2019-05-30T23:44:19.040Z,16.43
2019-05-30T23:46:46.797Z,16.45
2019-05-30T23:49:13.941Z,16.53
2019-05-30T23:51:41.103Z,16.58
2019-05-30T23:54:08.332Z,16.57
2019-05-30T23:56:35.477Z,16.57
2019-05-30T23:59:02.635Z,16.58
